MMCP/CPE METAR and TAF weather

Enter ICAO airport designator
Station Type Date Time Source
MMCP METAR 2022/11/27 01:40 UTC NOAA

MMCP 270140Z 00000KT 7SM FEW030 26/25 A2995 RMK 8/700


Station Type Date Time Source
MMCP Decoded METAR 2022/11/27 01:40 UTC NOAA

Campeche, Camp., Mexico (MMCP) 19-51N 090-33W
Nov 26, 2022 - 08:40 PM EST / 2022.11.27 0140 UTC
Wind: Calm:0
Visibility: 7 mile(s):0
Sky conditions: mostly clear
Temperature: 78 F (26 C)
Dew Point: 77 F (25 C)
Relative Humidity: 94%
Pressure (altimeter): 29.95 in. Hg (1014 hPa)
ob: MMCP 270140Z 00000KT 7SM FEW030 26/25 A2995 RMK 8/700
cycle: 1

Station Type Date Time Source
MMCP TAF 2022/11/27 06:37 UTC NOAA

TAF MMCP 270529Z 2706/2806 15005KT P6SM SCT300
FM270900 13010KT 6SM HZ SCT010 SCT300
TEMPO 2710/2714 3SM BR BKN005 BKN010
FM271500 19005KT 6SM HZ SCT030
FM271800 28010KT P6SM BKN030 BKN300
TEMPO 2720/2800 6SM -RA BKN030CB
FM280300 05005KT P6SM SCT030 SCT100

Example: see airport list